Aviation WX

[Source: ADDS]
METAR
KFKL 091655Z 27010G15KT 1 1/2SM M04/M08 A3028 RMK AO1 =
TAF
KFKL 091133Z 0912/1012 26010G20KT 5SM -SHSN OVC015 TEMPO 0912/0916 2SM -SHSN FM100000 25008KT P6SM -SHSN OVC025 AMD NOT SKED =